Time;durP1;ratioP1;P1;durP2;ratioP2;P2;SDS_P1;SDS_P2;PMS_P1;PMS_P2;Temp;Humidity;BMP_temperature;BMP_pressure;BME280_temperature;BME280_humidity;BME280_pressure;Samples;Min_cycle;Max_cycle;Signal;HPM_P1;HPM_P2
2023/01/13 00:02:24;;;;;;;29.83;6.53;;;8.50;99.90;;;;;;5116987;27;20313;-75
2023/01/13 00:04:50;;;;;;;40.17;7.83;;;8.50;99.90;;;;;;5115928;28;20321;-75
2023/01/13 00:07:16;;;;;;;36.37;7.93;;;8.50;99.90;;;;;;5117040;28;20043;-75
2023/01/13 00:09:41;;;;;;;31.03;6.30;;;8.40;99.90;;;;;;5116899;28;20513;-75
2023/01/13 00:12:07;;;;;;;39.00;6.90;;;8.40;99.90;;;;;;5116134;28;20047;-75
2023/01/13 00:14:34;;;;;;;37.80;7.90;;;8.40;99.90;;;;;;5116709;28;20051;-75
2023/01/13 00:17:01;;;;;;;38.40;6.80;;;8.30;99.90;;;;;;5116945;28;20504;-75
2023/01/13 00:19:27;;;;;;;35.13;6.43;;;8.30;99.90;;;;;;5116638;28;20284;-75
2023/01/13 00:21:52;;;;;;;45.23;8.73;;;8.30;99.90;;;;;;5116813;28;20289;-75
2023/01/13 00:24:18;;;;;;;32.43;6.20;;;8.30;99.90;;;;;;5115898;28;20105;-75
2023/01/13 00:26:44;;;;;;;31.27;6.80;;;8.30;99.90;;;;;;5116491;28;20556;-75
2023/01/13 00:29:10;;;;;;;47.07;7.67;;;8.20;99.90;;;;;;5116683;28;20044;-75
2023/01/13 00:31:35;;;;;;;43.70;7.97;;;8.20;99.90;;;;;;5115119;28;20075;-76
2023/01/13 00:34:01;;;;;;;43.23;8.00;;;8.20;99.90;;;;;;5116581;28;20391;-75
2023/01/13 00:36:29;;;;;;;43.33;7.70;;;8.20;99.90;;;;;;5116144;28;20044;-78
2023/01/13 00:38:55;;;;;;;36.53;8.43;;;8.20;99.90;;;;;;5115254;28;20105;-75
2023/01/13 00:41:22;;;;;;;41.23;7.03;;;8.20;99.90;;;;;;5116562;27;20376;-75
2023/01/13 00:43:48;;;;;;;42.93;7.53;;;8.20;99.90;;;;;;5116092;28;20055;-75
2023/01/13 00:46:16;;;;;;;44.50;7.77;;;8.10;99.90;;;;;;5116284;28;20714;-75
2023/01/13 00:48:42;;;;;;;47.90;8.43;;;8.10;99.90;;;;;;5116092;28;20047;-75
2023/01/13 00:51:14;;;;;;;40.30;7.93;;;8.10;99.90;;;;;;5115045;28;20848;-75
2023/01/13 00:53:42;;;;;;;38.27;9.17;;;8.10;99.90;;;;;;5115924;28;20043;-75
2023/01/13 00:56:13;;;;;;;35.93;6.37;;;8.10;99.90;;;;;;5116377;28;20324;-75
2023/01/13 00:58:39;;;;;;;42.63;7.70;;;8.00;99.90;;;;;;5115947;28;20273;-75
2023/01/13 01:01:17;;;;;;;49.33;7.60;;;8.00;99.90;;;;;;5116037;28;20342;-75
2023/01/13 01:03:45;;;;;;;42.87;8.30;;;8.00;99.90;;;;;;5115583;28;20630;-75
2023/01/13 01:06:14;;;;;;;39.53;7.30;;;8.00;99.90;;;;;;5115913;28;20305;-75
2023/01/13 01:08:40;;;;;;;43.93;8.30;;;8.00;99.90;;;;;;5115571;27;20678;-75
2023/01/13 01:11:09;;;;;;;39.30;7.23;;;8.00;99.90;;;;;;5115097;28;20767;-75
2023/01/13 01:13:35;;;;;;;36.33;9.30;;;8.00;99.90;;;;;;5115482;28;20790;-75
2023/01/13 01:16:06;;;;;;;45.37;8.07;;;8.00;99.90;;;;;;5115700;28;20277;-75
2023/01/13 01:18:39;;;;;;;40.77;6.70;;;8.00;99.90;;;;;;5114441;28;20293;-76
2023/01/13 01:21:06;;;;;;;41.60;7.57;;;8.00;99.90;;;;;;5115814;28;20286;-75
2023/01/13 01:23:33;;;;;;;36.37;7.57;;;8.00;99.90;;;;;;5114183;28;20325;-77
2023/01/13 01:26:01;;;;;;;44.83;8.00;;;7.90;99.90;;;;;;5114192;28;20754;-75
2023/01/13 01:28:27;;;;;;;36.47;7.53;;;7.90;99.90;;;;;;5115492;28;20281;-75
2023/01/13 01:30:58;;;;;;;37.50;7.80;;;7.90;99.90;;;;;;5115196;28;20284;-76
2023/01/13 01:33:24;;;;;;;39.67;7.27;;;8.00;99.90;;;;;;5114429;28;20667;-75
2023/01/13 01:35:51;;;;;;;37.43;7.13;;;7.90;99.90;;;;;;5113850;28;20320;-76
2023/01/13 01:38:16;;;;;;;45.60;8.87;;;7.90;99.90;;;;;;5115190;28;20278;-75
2023/01/13 01:40:42;;;;;;;30.63;6.77;;;7.90;99.90;;;;;;5113902;28;20384;-75
2023/01/13 01:46:04;;;;;;;;;;;7.90;99.90;;;;;;5115837;28;20395;-75
2023/01/13 01:48:40;;;;;;;41.80;6.27;;;7.90;99.90;;;;;;5115117;28;19927;-75
2023/01/13 01:51:10;;;;;;;47.57;7.77;;;7.90;99.90;;;;;;5113992;28;20491;-75
2023/01/13 01:53:36;;;;;;;45.17;7.20;;;7.90;99.90;;;;;;5114726;28;20284;-76
2023/01/13 01:56:02;;;;;;;44.60;7.93;;;7.90;99.90;;;;;;5114924;28;20341;-75
2023/01/13 01:58:34;;;;;;;39.37;7.57;;;7.90;99.90;;;;;;5114879;28;20277;-75
2023/01/13 02:01:00;;;;;;;47.67;8.30;;;7.90;99.90;;;;;;5114555;28;20278;-75
2023/01/13 02:03:26;;;;;;;34.37;6.77;;;7.90;99.90;;;;;;5114740;28;20265;-75
2023/01/13 02:05:52;;;;;;;40.70;7.27;;;8.00;99.90;;;;;;5114382;28;20285;-76
2023/01/13 02:08:19;;;;;;;38.40;8.17;;;8.00;99.90;;;;;;5114530;28;20283;-75
2023/01/13 02:10:51;;;;;;;39.37;7.53;;;8.00;99.90;;;;;;5114313;27;20376;-76
2023/01/13 02:13:19;;;;;;;31.00;6.67;;;8.00;99.90;;;;;;5114570;28;20274;-76
2023/01/13 02:16:20;;;;;;;41.60;8.53;;;8.00;99.90;;;;;;5114270;28;20288;-75
2023/01/13 02:19:06;;;;;;;41.50;7.50;;;8.00;99.90;;;;;;5112016;28;20358;-75
2023/01/13 02:22:09;;;;;;;37.77;8.73;;;8.00;99.90;;;;;;5112410;28;20340;-74
2023/01/13 02:24:54;;;;;;;52.63;7.97;;;8.00;99.90;;;;;;5113100;28;20377;-75
2023/01/13 02:27:52;;;;;;;41.43;7.50;;;8.00;99.90;;;;;;5114459;28;20297;-75
2023/01/13 02:33:40;;;;;;;43.17;8.23;;;8.00;99.90;;;;;;5114439;27;20635;-75
2023/01/13 02:36:26;;;;;;;45.35;8.13;;;8.00;99.90;;;;;;5114354;28;20332;-75
2023/01/13 02:39:14;;;;;;;44.13;8.90;;;8.10;99.90;;;;;;5101725;28;20051;-75
2023/01/13 02:44:57;;;;;;;43.00;8.77;;;8.20;99.90;;;;;;5114037;28;20325;-75
2023/01/13 02:47:29;;;;;;;41.97;7.82;;;8.20;99.90;;;;;;5113628;28;20306;-75
2023/01/13 02:50:20;;;;;;;37.03;6.93;;;8.20;99.90;;;;;;5112729;28;20049;-75
2023/01/13 02:52:49;;;;;;;44.00;8.20;;;8.20;99.90;;;;;;5113568;28;20276;-75
2023/01/13 02:55:38;;;;;;;40.40;9.27;;;8.30;99.90;;;;;;5112600;28;20359;-75
2023/01/13 02:58:07;;;;;;;42.70;7.50;;;8.30;99.90;;;;;;5113536;28;20352;-75
2023/01/13 03:00:34;;;;;;;40.57;8.13;;;8.30;99.90;;;;;;5112642;28;20294;-75
2023/01/13 03:03:00;;;;;;;36.07;7.47;;;8.30;99.90;;;;;;5113368;28;20296;-75
2023/01/13 03:05:27;;;;;;;39.80;6.97;;;8.30;99.90;;;;;;5113436;28;20765;-75
2023/01/13 03:08:18;;;;;;;39.07;7.70;;;8.30;99.90;;;;;;5113276;28;20309;-75
2023/01/13 03:11:06;;;;;;;42.70;6.90;;;8.20;99.90;;;;;;5113396;28;20286;-78
2023/01/13 03:13:53;;;;;;;39.17;6.33;;;8.20;99.90;;;;;;5113623;28;20882;-75
2023/01/13 03:16:30;;;;;;;32.90;7.17;;;8.20;99.90;;;;;;5113522;28;20763;-75
2023/01/13 03:18:55;;;;;;;42.13;7.33;;;8.30;99.90;;;;;;5113411;28;20360;-75
2023/01/13 03:21:34;;;;;;;31.20;5.93;;;8.20;99.90;;;;;;5112455;28;20690;-75
2023/01/13 03:24:08;;;;;;;37.13;7.87;;;8.30;99.90;;;;;;5112298;28;20047;-75
2023/01/13 03:26:58;;;;;;;42.93;7.20;;;8.30;99.90;;;;;;5113434;28;20328;-75
2023/01/13 03:29:37;;;;;;;37.40;6.53;;;8.30;99.90;;;;;;5113473;28;20284;-75
2023/01/13 03:32:24;;;;;;;41.20;7.23;;;8.30;99.90;;;;;;5113136;28;20317;-75
2023/01/13 03:34:54;;;;;;;37.07;6.67;;;8.30;99.90;;;;;;5115295;28;20350;-76
2023/01/13 03:37:25;;;;;;;41.37;6.67;;;8.30;99.90;;;;;;5117900;28;20272;-75
2023/01/13 03:40:01;;;;;;;37.67;6.90;;;8.30;99.90;;;;;;5117353;27;20278;-75
2023/01/13 03:42:30;;;;;;;39.43;6.87;;;8.30;99.90;;;;;;5117490;28;20273;-75
2023/01/13 03:45:03;;;;;;;44.53;8.37;;;8.30;99.90;;;;;;5116850;28;20826;-75
2023/01/13 03:47:46;;;;;;;38.10;7.43;;;8.30;99.90;;;;;;5117307;28;20297;-75
2023/01/13 03:50:52;;;;;;;41.33;7.40;;;8.30;99.90;;;;;;5116138;28;20290;-75
2023/01/13 03:53:53;;;;;;;42.88;7.30;;;8.30;99.90;;;;;;5111348;27;20361;-75
2023/01/13 03:56:32;;;;;;;45.23;8.57;;;8.20;99.90;;;;;;5116867;28;20048;-75
2023/01/13 03:59:03;;;;;;;38.60;7.83;;;8.20;99.90;;;;;;5116977;28;20285;-75
2023/01/13 04:01:58;;;;;;;43.73;8.00;;;8.20;99.90;;;;;;5116174;28;20321;-75
2023/01/13 04:04:32;;;;;;;40.17;6.40;;;8.10;99.90;;;;;;5117397;28;20269;-75
2023/01/13 04:07:16;;;;;;;41.77;7.33;;;8.10;99.90;;;;;;5116768;28;20301;-75
2023/01/13 04:09:51;;;;;;;32.53;7.13;;;8.10;99.90;;;;;;5117332;28;20293;-75
2023/01/13 04:15:26;;;;;;;38.50;6.25;;;8.10;99.90;;;;;;5116903;28;20296;-75
2023/01/13 04:17:53;;;;;;;34.37;7.37;;;8.10;99.90;;;;;;5116567;28;20039;-75
2023/01/13 04:20:19;;;;;;;39.60;7.83;;;8.10;99.90;;;;;;5116685;28;20300;-75
2023/01/13 04:22:45;;;;;;;42.70;8.03;;;8.10;99.90;;;;;;5116718;28;20319;-75
2023/01/13 04:25:11;;;;;;;36.47;6.37;;;8.20;99.90;;;;;;5116410;28;20282;-75
2023/01/13 04:27:37;;;;;;;32.33;6.67;;;8.10;99.90;;;;;;5116593;28;20046;-75
2023/01/13 04:30:04;;;;;;;29.63;5.57;;;8.20;99.90;;;;;;5116391;28;20131;-75
2023/01/13 04:32:29;;;;;;;38.27;6.30;;;8.20;99.90;;;;;;5116746;28;20050;-75
2023/01/13 04:34:55;;;;;;;37.63;6.00;;;8.30;99.90;;;;;;5116176;28;20286;-75
2023/01/13 04:37:21;;;;;;;31.50;6.10;;;8.20;99.90;;;;;;5115786;28;20123;-75
2023/01/13 04:39:46;;;;;;;34.67;6.63;;;8.30;99.90;;;;;;5115544;28;20395;-75
2023/01/13 04:42:12;;;;;;;33.60;5.47;;;8.30;99.90;;;;;;5116068;27;20501;-76
2023/01/13 04:44:38;;;;;;;34.83;6.40;;;8.30;99.90;;;;;;5115207;28;20046;-75
2023/01/13 04:47:04;;;;;;;33.53;6.93;;;8.30;99.90;;;;;;5114466;28;20043;-75
2023/01/13 04:49:30;;;;;;;33.57;7.10;;;8.30;99.90;;;;;;5115235;28;20043;-75
2023/01/13 04:51:56;;;;;;;31.57;5.97;;;8.30;99.90;;;;;;5115972;28;20281;-76
2023/01/13 04:54:21;;;;;;;37.90;7.53;;;8.30;99.90;;;;;;5116119;28;20597;-75
2023/01/13 04:56:47;;;;;;;41.27;7.10;;;8.30;99.90;;;;;;5116083;28;20044;-75
2023/01/13 04:59:13;;;;;;;37.40;6.23;;;8.30;99.90;;;;;;5115770;28;20044;-74
2023/01/13 05:01:40;;;;;;;37.57;6.23;;;8.30;99.90;;;;;;5115932;28;20479;-75
2023/01/13 05:04:06;;;;;;;36.90;5.97;;;8.30;99.90;;;;;;5115580;28;20373;-74
2023/01/13 05:06:32;;;;;;;40.53;8.10;;;8.30;99.90;;;;;;5115820;28;20344;-75
2023/01/13 05:08:58;;;;;;;34.37;5.27;;;8.30;99.90;;;;;;5114070;28;20321;-75
2023/01/13 05:17:00;;;;;;;32.53;6.10;;;8.30;99.90;;;;;;5115861;28;20281;-74
2023/01/13 05:19:34;;;;;;;28.10;6.43;;;8.30;99.90;;;;;;5114967;28;20723;-75
2023/01/13 05:27:31;;;;;;;29.90;6.30;;;8.40;99.90;;;;;;5115500;28;20039;-75
2023/01/13 05:29:57;;;;;;;29.17;5.90;;;8.40;99.90;;;;;;5115497;28;20293;-74
2023/01/13 05:32:24;;;;;;;38.07;6.47;;;8.40;99.90;;;;;;5114134;28;20286;-75
2023/01/13 05:34:50;;;;;;;29.33;5.37;;;8.40;99.90;;;;;;5115551;28;20043;-75
2023/01/13 05:37:16;;;;;;;31.93;5.03;;;8.40;99.90;;;;;;5113812;28;20296;-75
2023/01/13 05:45:11;;;;;;;22.70;4.63;;;8.40;99.90;;;;;;5114103;28;20051;-75
2023/01/13 05:47:37;;;;;;;28.07;5.13;;;8.40;99.90;;;;;;5115002;28;20455;-74
2023/01/13 05:50:03;;;;;;;25.17;4.27;;;8.40;99.90;;;;;;5114784;28;20388;-76
2023/01/13 05:52:29;;;;;;;27.43;4.57;;;8.40;99.90;;;;;;5114955;28;20054;-75
2023/01/13 05:54:55;;;;;;;29.43;6.07;;;8.50;99.90;;;;;;5114985;28;20281;-75
2023/01/13 05:57:21;;;;;;;37.97;7.07;;;8.50;99.90;;;;;;5114551;28;20558;-75
2023/01/13 05:59:46;;;;;;;29.73;5.93;;;8.40;99.90;;;;;;5114913;28;20070;-75
2023/01/13 06:02:12;;;;;;;29.13;5.27;;;8.40;99.90;;;;;;5114669;28;20051;-75
2023/01/13 06:04:38;;;;;;;28.63;4.90;;;8.40;99.90;;;;;;5114110;28;20527;-75
2023/01/13 06:07:04;;;;;;;28.33;5.03;;;8.40;99.90;;;;;;5114523;28;20391;-76
2023/01/13 06:09:30;;;;;;;22.97;4.03;;;8.40;99.90;;;;;;5113467;28;20138;-75
2023/01/13 06:11:55;;;;;;;29.80;5.50;;;8.40;99.90;;;;;;5113613;28;20135;-75
2023/01/13 06:14:22;;;;;;;28.13;5.63;;;8.50;99.90;;;;;;5113400;28;20497;-75
2023/01/13 06:16:47;;;;;;;26.83;5.33;;;8.50;99.90;;;;;;5113647;28;20055;-75
2023/01/13 06:19:13;;;;;;;22.27;4.57;;;8.50;99.90;;;;;;5112697;28;20289;-75
2023/01/13 06:21:39;;;;;;;22.23;4.53;;;8.50;99.90;;;;;;5114510;28;20050;-74
2023/01/13 06:24:06;;;;;;;22.93;4.73;;;8.50;99.90;;;;;;5114200;28;20051;-76
2023/01/13 06:26:38;;;;;;;28.30;5.47;;;8.40;99.90;;;;;;5114737;27;20614;-75
2023/01/13 06:29:05;;;;;;;27.43;5.90;;;8.40;99.90;;;;;;5114458;28;20358;-75
2023/01/13 06:31:35;;;;;;;29.80;5.10;;;8.40;99.90;;;;;;5113305;28;20676;-74
2023/01/13 06:34:11;;;;;;;32.57;6.70;;;8.40;99.90;;;;;;5114308;28;20330;-75
2023/01/13 06:36:43;;;;;;;26.93;5.40;;;8.30;99.90;;;;;;5114441;28;20270;-74
2023/01/13 06:39:13;;;;;;;26.37;5.17;;;8.30;99.90;;;;;;5112962;28;20289;-75
2023/01/13 06:44:23;;;;;;;26.47;4.53;;;8.30;99.90;;;;;;5113836;28;20621;-74
2023/01/13 06:46:50;;;;;;;27.07;4.77;;;8.20;99.90;;;;;;5113894;27;20388;-74
2023/01/13 06:49:16;;;;;;;29.07;4.63;;;8.20;99.90;;;;;;5113671;28;20050;-74
2023/01/13 06:51:42;;;;;;;30.27;5.40;;;8.10;99.90;;;;;;5113920;28;20286;-73
2023/01/13 06:54:08;;;;;;;28.50;6.17;;;8.10;99.90;;;;;;5113668;28;20100;-77
2023/01/13 06:56:34;;;;;;;34.30;5.43;;;8.10;99.90;;;;;;5112293;28;20062;-73
2023/01/13 06:58:59;;;;;;;28.17;6.20;;;8.00;99.90;;;;;;5113826;28;20043;-73
2023/01/13 07:01:25;;;;;;;30.27;5.83;;;8.00;99.90;;;;;;5095393;28;20547;-73
2023/01/13 07:03:51;;;;;;;33.30;5.57;;;7.90;99.90;;;;;;5095813;28;20047;-73
2023/01/13 07:06:16;;;;;;;27.53;5.13;;;7.90;99.90;;;;;;5113452;28;20484;-73
2023/01/13 07:08:42;;;;;;;27.40;5.43;;;7.90;99.90;;;;;;5112931;28;20131;-73
2023/01/13 07:11:08;;;;;;;23.27;4.80;;;7.90;99.90;;;;;;5112219;28;20058;-73
2023/01/13 07:16:18;;;;;;;29.77;5.15;;;7.90;99.90;;;;;;5113401;28;20048;-73
2023/01/13 07:18:44;;;;;;;34.07;6.33;;;7.80;99.90;;;;;;5113684;28;20184;-73
2023/01/13 07:21:17;;;;;;;34.27;5.30;;;7.90;99.90;;;;;;5113627;28;20047;-73
2023/01/13 07:23:43;;;;;;;40.27;5.80;;;7.80;99.90;;;;;;5113573;28;20047;-73
2023/01/13 07:26:10;;;;;;;24.63;4.83;;;7.80;99.90;;;;;;5113458;28;20283;-73
2023/01/13 07:28:36;;;;;;;31.63;5.03;;;7.80;99.90;;;;;;5112290;28;20333;-73
2023/01/13 07:31:02;;;;;;;28.20;5.50;;;7.80;99.90;;;;;;5113456;28;20338;-73
2023/01/13 07:33:31;;;;;;;34.03;5.17;;;7.80;99.90;;;;;;5113168;28;20281;-73
2023/01/13 07:35:59;;;;;;;25.43;5.20;;;7.70;99.90;;;;;;5113372;28;20285;-72
2023/01/13 07:38:26;;;;;;;31.07;5.70;;;7.80;99.90;;;;;;5112811;28;20785;-73
2023/01/13 07:40:52;;;;;;;29.17;5.50;;;7.80;99.90;;;;;;5112429;28;20294;-73
2023/01/13 07:43:33;;;;;;;27.30;4.87;;;7.80;99.90;;;;;;5113213;28;20292;-73
2023/01/13 07:46:03;;;;;;;30.93;6.00;;;7.80;99.90;;;;;;5113544;28;20051;-73
2023/01/13 07:48:31;;;;;;;28.97;6.27;;;7.80;99.90;;;;;;5112131;28;20300;-73
2023/01/13 07:51:05;;;;;;;30.57;5.30;;;7.80;99.90;;;;;;5113255;28;20292;-73
2023/01/13 07:53:31;;;;;;;35.17;5.83;;;7.80;99.90;;;;;;5113050;28;20273;-73
2023/01/13 07:55:58;;;;;;;30.83;6.10;;;7.90;99.90;;;;;;5112263;28;20281;-72
2023/01/13 07:58:25;;;;;;;32.03;6.47;;;7.90;99.90;;;;;;5112636;28;20626;-73
2023/01/13 08:00:51;;;;;;;32.53;4.67;;;7.90;99.90;;;;;;5113233;28;20282;-73
2023/01/13 08:03:16;;;;;;;32.50;6.20;;;7.90;99.90;;;;;;5113026;28;20288;-73
2023/01/13 08:05:42;;;;;;;34.27;6.13;;;7.90;99.90;;;;;;5113509;28;20345;-73
2023/01/13 08:08:08;;;;;;;37.43;5.53;;;7.90;99.90;;;;;;5112941;28;20502;-73
2023/01/13 08:10:34;;;;;;;31.63;4.80;;;7.90;99.90;;;;;;5112971;28;20605;-73
2023/01/13 08:15:46;;;;;;;32.17;6.53;;;7.90;99.90;;;;;;5113244;28;20047;-73
2023/01/13 08:18:12;;;;;;;31.63;5.97;;;8.00;99.90;;;;;;5111846;28;20571;-72
2023/01/13 08:20:38;;;;;;;34.43;5.93;;;8.00;99.90;;;;;;5114367;28;20284;-70
2023/01/13 08:23:04;;;;;;;31.90;6.80;;;8.00;99.90;;;;;;5116850;27;20293;-73
2023/01/13 08:25:30;;;;;;;32.67;6.33;;;8.00;99.90;;;;;;5116591;28;20043;-73
2023/01/13 08:27:56;;;;;;;30.13;6.50;;;8.00;99.90;;;;;;5116520;28;20323;-73
2023/01/13 08:30:22;;;;;;;34.50;5.00;;;8.10;99.90;;;;;;5116597;28;20277;-72
2023/01/13 08:32:49;;;;;;;30.70;5.70;;;8.10;99.90;;;;;;5116663;28;20482;-71
2023/01/13 08:35:16;;;;;;;31.27;6.70;;;8.10;99.90;;;;;;5116592;28;20089;-71
2023/01/13 08:37:43;;;;;;;28.67;5.83;;;8.10;99.90;;;;;;5115976;28;20641;-72
2023/01/13 08:40:10;;;;;;;31.33;5.67;;;8.10;99.90;;;;;;5116480;28;20285;-72
2023/01/13 08:42:35;;;;;;;30.73;5.67;;;8.10;99.90;;;;;;5116148;28;20277;-72
2023/01/13 08:45:01;;;;;;;32.70;4.67;;;8.20;99.90;;;;;;5116401;28;20625;-72
2023/01/13 08:47:27;;;;;;;33.20;6.23;;;8.20;99.90;;;;;;5115703;28;20048;-72
2023/01/13 08:49:53;;;;;;;32.77;6.23;;;8.20;99.90;;;;;;5116385;28;20043;-71
2023/01/13 08:52:20;;;;;;;30.40;5.47;;;8.20;99.90;;;;;;5116148;28;20472;-71
2023/01/13 08:54:46;;;;;;;24.33;4.30;;;8.10;99.90;;;;;;5116185;28;20277;-72
2023/01/13 08:57:13;;;;;;;21.37;4.77;;;8.10;99.90;;;;;;5116160;28;20278;-71
2023/01/13 08:59:39;;;;;;;26.90;4.67;;;8.10;99.90;;;;;;5115865;27;20100;-72
2023/01/13 09:02:13;;;;;;;22.67;4.67;;;8.00;99.90;;;;;;5116161;28;20328;-72
2023/01/13 09:04:38;;;;;;;27.57;4.73;;;8.00;99.90;;;;;;5115712;28;20051;-71
2023/01/13 09:07:04;;;;;;;23.90;4.83;;;8.00;99.90;;;;;;5115915;28;20304;-71
2023/01/13 09:09:30;;;;;;;24.47;3.97;;;7.90;99.90;;;;;;5115360;27;20060;-72
2023/01/13 09:14:40;;;;;;;28.33;4.57;;;7.90;99.90;;;;;;5115629;28;20052;-72
2023/01/13 09:17:07;;;;;;;34.77;5.93;;;7.90;99.90;;;;;;5115775;27;20269;-74
2023/01/13 09:19:33;;;;;;;26.50;5.27;;;7.90;99.90;;;;;;5115417;28;20411;-71
2023/01/13 09:21:58;;;;;;;34.43;5.60;;;7.90;99.90;;;;;;5115646;28;20292;-72
2023/01/13 09:24:25;;;;;;;29.43;6.77;;;7.90;99.90;;;;;;5115063;28;20297;-74
2023/01/13 09:26:51;;;;;;;30.47;6.10;;;7.90;99.90;;;;;;5114579;28;20383;-71
2023/01/13 09:29:16;;;;;;;35.03;5.40;;;7.90;99.90;;;;;;5115529;28;20288;-72
2023/01/13 09:31:43;;;;;;;36.97;6.07;;;7.90;99.90;;;;;;5114841;28;20043;-72
2023/01/13 09:37:05;;;;;;;27.53;5.63;;;7.90;99.90;;;;;;5115631;28;20364;-70
2023/01/13 09:39:35;;;;;;;38.93;6.83;;;7.90;99.90;;;;;;5115122;28;20292;-72
2023/01/13 09:45:13;;;;;;;26.90;5.67;;;7.90;99.90;;;;;;5115319;28;20285;-83
2023/01/13 09:48:19;;;;;;;21.97;4.07;;;7.90;99.90;;;;;;5114884;28;20298;-83
2023/01/13 09:51:17;;;;;;;25.42;4.88;;;7.90;99.90;;;;;;5071836;28;20060;-83
2023/01/13 09:54:11;;;;;;;32.23;5.50;;;7.90;99.90;;;;;;5114662;28;20518;-82
2023/01/13 09:56:37;;;;;;;22.67;4.73;;;7.90;99.90;;;;;;5112273;28;20294;-83
2023/01/13 09:59:03;;;;;;;28.07;5.93;;;7.90;99.90;;;;;;5113881;28;20638;-86
2023/01/13 10:01:43;;;;;;;28.77;5.07;;;7.90;99.90;;;;;;5114708;28;20116;-72
2023/01/13 10:04:11;;;;;;;25.40;5.30;;;7.90;99.90;;;;;;5114899;28;20277;-73
2023/01/13 10:06:41;;;;;;;28.43;5.37;;;7.90;99.90;;;;;;5114523;28;20679;-81
2023/01/13 10:09:14;;;;;;;31.80;6.23;;;7.90;99.90;;;;;;5114397;28;20748;-82
2023/01/13 10:14:40;;;;;;;27.57;4.97;;;7.90;99.90;;;;;;5114725;28;20282;-82
2023/01/13 10:17:32;;;;;;;29.93;5.27;;;8.00;99.90;;;;;;5114637;28;20281;-80
2023/01/13 10:20:04;;;;;;;26.03;4.67;;;8.00;99.90;;;;;;5113977;28;20610;-81
2023/01/13 10:22:44;;;;;;;33.10;5.73;;;8.00;99.90;;;;;;5114562;28;20583;-79
2023/01/13 10:25:29;;;;;;;25.47;5.23;;;8.00;99.90;;;;;;5114498;28;20818;-83
2023/01/13 10:28:03;;;;;;;31.60;6.50;;;8.10;99.90;;;;;;5112854;28;20350;-82
2023/01/13 10:30:41;;;;;;;29.53;5.23;;;8.10;99.90;;;;;;5114484;28;20633;-79
2023/01/13 10:33:20;;;;;;;24.57;6.27;;;8.10;99.90;;;;;;5114648;28;20273;-80
2023/01/13 10:35:53;;;;;;;20.27;4.47;;;8.20;99.90;;;;;;5114296;28;20332;-79
2023/01/13 10:38:25;;;;;;;22.30;4.23;;;8.20;99.90;;;;;;5113946;28;20792;-80
2023/01/13 10:41:15;;;;;;;26.10;5.17;;;8.20;99.90;;;;;;5113974;28;20360;-83
2023/01/13 10:43:51;;;;;;;25.17;4.40;;;8.20;99.90;;;;;;5113120;28;20292;-78
2023/01/13 10:46:20;;;;;;;25.57;4.63;;;8.20;99.90;;;;;;5114058;28;20282;-78
2023/01/13 10:48:54;;;;;;;24.97;4.50;;;8.20;99.90;;;;;;5113843;28;20281;-74
2023/01/13 10:51:38;;;;;;;32.03;4.70;;;8.20;99.90;;;;;;5113630;28;20342;-76
2023/01/13 10:54:18;;;;;;;22.97;4.20;;;8.30;99.90;;;;;;5111203;28;20293;-75
2023/01/13 10:56:45;;;;;;;26.53;4.30;;;8.30;99.90;;;;;;5110977;28;20294;-72
2023/01/13 10:59:22;;;;;;;25.80;4.40;;;8.30;99.90;;;;;;5113132;28;20789;-81
2023/01/13 11:01:54;;;;;;;27.53;4.40;;;8.30;99.90;;;;;;5113353;28;20289;-78
2023/01/13 11:04:31;;;;;;;26.87;5.53;;;8.30;99.90;;;;;;5112378;28;20380;-81
2023/01/13 11:06:58;;;;;;;21.33;4.27;;;8.30;99.90;;;;;;5107717;28;20347;-76
2023/01/13 11:09:25;;;;;;;25.70;4.30;;;8.30;99.90;;;;;;5113466;28;20773;-74
2023/01/13 11:11:54;;;;;;;22.73;4.17;;;8.30;99.90;;;;;;5113175;28;20281;-75
2023/01/13 11:14:38;;;;;;;22.37;3.80;;;8.30;99.90;;;;;;5112259;28;20354;-74
2023/01/13 11:17:16;;;;;;;18.90;3.53;;;8.30;99.90;;;;;;5113080;28;20603;-80
2023/01/13 11:20:05;;;;;;;19.20;3.87;;;8.40;99.90;;;;;;5111717;28;20633;-77
2023/01/13 11:22:38;;;;;;;19.77;3.63;;;8.50;99.90;;;;;;5109233;28;20280;-78
2023/01/13 11:25:09;;;;;;;24.43;3.97;;;8.50;99.90;;;;;;5112377;28;20630;-80
2023/01/13 11:27:34;;;;;;;23.10;3.80;;;8.60;99.90;;;;;;5113498;28;20293;-81
2023/01/13 11:30:08;;;;;;;21.03;3.70;;;8.50;99.90;;;;;;5113476;28;20288;-76
2023/01/13 11:32:45;;;;;;;16.10;3.43;;;8.60;99.90;;;;;;5112246;28;20058;-70
2023/01/13 11:35:17;;;;;;;19.53;4.23;;;8.60;99.90;;;;;;5113481;28;20315;-72
2023/01/13 11:37:51;;;;;;;18.20;4.10;;;8.60;99.90;;;;;;5111949;28;20274;-76
2023/01/13 11:40:39;;;;;;;25.27;4.13;;;8.70;99.90;;;;;;5113422;28;20266;-72
2023/01/13 11:43:44;;;;;;;18.60;3.90;;;8.70;99.90;;;;;;5113793;28;20348;-75
2023/01/13 11:46:10;;;;;;;17.63;3.75;;;8.60;99.90;;;;;;5113634;28;20278;-77
2023/01/13 11:48:41;;;;;;;20.30;3.90;;;8.60;99.90;;;;;;5113653;28;20050;-75
2023/01/13 11:51:12;;;;;;;15.37;3.30;;;8.60;99.90;;;;;;5113578;28;20055;-71
2023/01/13 11:54:11;;;;;;;20.47;3.80;;;8.60;99.90;;;;;;5112321;28;20286;-71
2023/01/13 11:56:39;;;;;;;28.43;3.80;;;8.60;99.90;;;;;;5116775;28;20346;-74
2023/01/13 11:59:26;;;;;;;20.70;3.93;;;8.70;99.90;;;;;;5117743;28;20376;-71
2023/01/13 12:02:03;;;;;;;23.07;4.83;;;8.70;99.90;;;;;;5117041;28;20324;-71
2023/01/13 12:04:51;;;;;;;18.07;4.13;;;8.80;99.90;;;;;;5117283;28;20278;-71
2023/01/13 12:07:46;;;;;;;12.87;3.23;;;8.80;99.90;;;;;;5117093;28;20297;-71
2023/01/13 12:10:17;;;;;;;17.33;3.97;;;8.80;99.90;;;;;;5094972;28;20290;-71
2023/01/13 12:12:59;;;;;;;20.63;5.50;;;8.80;99.90;;;;;;5116874;28;20462;-73
2023/01/13 12:15:51;;;;;;;17.37;4.13;;;8.90;99.90;;;;;;5099271;28;20332;-72
2023/01/13 12:19:00;;;;;;;18.80;4.10;;;8.90;99.90;;;;;;5114254;28;20281;-71
2023/01/13 12:21:31;;;;;;;21.00;4.50;;;8.90;99.90;;;;;;5105973;28;20293;-74
2023/01/13 12:24:16;;;;;;;19.60;3.73;;;8.90;99.90;;;;;;5116632;28;20273;-78
2023/01/13 12:26:50;;;;;;;18.33;4.10;;;8.90;99.90;;;;;;5111382;28;20286;-78
2023/01/13 12:29:18;;;;;;;20.83;4.77;;;8.90;99.90;;;;;;5110062;28;20074;-76
2023/01/13 12:31:50;;;;;;;16.07;3.73;;;8.90;99.90;;;;;;5114642;28;20282;-78
2023/01/13 12:34:21;;;;;;;13.90;3.20;;;8.90;99.90;;;;;;5109923;28;20780;-77
2023/01/13 12:36:50;;;;;;;17.10;3.37;;;8.90;99.90;;;;;;5114906;28;20280;-78
2023/01/13 12:39:33;;;;;;;19.53;4.10;;;8.90;99.90;;;;;;5114348;28;20289;-75
2023/01/13 12:45:09;;;;;;;16.57;3.90;;;9.00;99.90;;;;;;5113235;28;20281;-73
2023/01/13 12:47:40;;;;;;;15.43;3.60;;;9.00;99.90;;;;;;5115465;28;20691;-70
2023/01/13 12:50:39;;;;;;;20.30;5.13;;;9.00;99.90;;;;;;5114705;28;20727;-72
2023/01/13 12:53:35;;;;;;;15.37;3.37;;;9.00;99.90;;;;;;5102452;28;20297;-71
2023/01/13 12:56:41;;;;;;;15.05;3.33;;;8.90;99.90;;;;;;5109439;28;20368;-72
2023/01/13 12:59:16;;;;;;;18.98;4.65;;;9.00;99.90;;;;;;5082775;28;20055;-72
2023/01/13 13:01:42;;;;;;;;;;;9.00;99.90;;;;;;5115115;28;20069;-71
2023/01/13 13:04:51;;;;;;;19.67;3.17;;;9.00;99.90;;;;;;5112440;28;20070;-70
2023/01/13 13:07:29;;;;;;;12.83;3.17;;;9.00;99.90;;;;;;5113577;28;20301;-71
2023/01/13 13:09:57;;;;;;;16.63;3.27;;;9.00;99.90;;;;;;5114247;28;20330;-71
2023/01/13 13:15:31;;;;;;;15.17;2.87;;;9.00;99.90;;;;;;5112757;28;20281;-71
2023/01/13 13:18:20;;;;;;;17.27;3.43;;;9.00;99.90;;;;;;5114449;28;20781;-70
2023/01/13 13:21:01;;;;;;;15.00;2.87;;;9.00;99.90;;;;;;5114783;28;20291;-77
2023/01/13 13:23:46;;;;;;;13.23;3.17;;;9.00;99.90;;;;;;5113238;28;20330;-73
2023/01/13 13:26:18;;;;;;;16.90;3.65;;;9.00;99.90;;;;;;5114261;28;20630;-72
2023/01/13 13:29:07;;;;;;;14.73;3.07;;;9.00;99.90;;;;;;5113384;28;20043;-72
2023/01/13 13:32:06;;;;;;;13.97;2.90;;;9.00;99.90;;;;;;5114547;28;20282;-72
2023/01/13 13:34:48;;;;;;;15.23;2.80;;;9.00;99.90;;;;;;5113213;28;20330;-74
2023/01/13 13:46:45;;;;;;;17.93;3.07;;;9.00;99.90;;;;;;5113757;28;20285;-73
2023/01/13 13:48:52;;;;;;;14.53;2.60;;;9.00;99.90;;;;;;5111486;28;20743;-78
2023/01/13 13:51:28;;;;;;;17.97;2.93;;;9.10;99.90;;;;;;5114188;28;20276;-73
2023/01/13 13:53:55;;;;;;;13.87;2.90;;;9.00;99.90;;;;;;5112750;28;20402;-71
2023/01/13 13:56:26;;;;;;;15.67;3.40;;;9.10;99.90;;;;;;5111556;28;21021;-72
2023/01/13 13:58:53;;;;;;;11.50;2.83;;;9.10;99.90;;;;;;5112551;28;20346;-72
2023/01/13 14:01:33;;;;;;;16.53;3.07;;;9.00;99.90;;;;;;5113598;28;20285;-72
2023/01/13 14:04:21;;;;;;;19.83;3.00;;;9.00;99.90;;;;;;5105127;28;20300;-72
2023/01/13 14:07:21;;;;;;;17.83;3.53;;;9.00;99.90;;;;;;5112852;28;20388;-73
2023/01/13 14:09:53;;;;;;;14.33;2.87;;;9.00;99.90;;;;;;5113016;28;20372;-72
2023/01/13 14:12:24;;;;;;;14.93;3.00;;;9.00;99.90;;;;;;5113562;28;20339;-74
2023/01/13 14:14:51;;;;;;;19.20;3.23;;;8.90;99.90;;;;;;5111828;28;20683;-73
2023/01/13 14:17:28;;;;;;;17.93;3.03;;;8.90;99.90;;;;;;5113018;28;20293;-73
2023/01/13 14:20:01;;;;;;;17.83;3.60;;;9.00;99.90;;;;;;5113149;28;20277;-71